sensor_id;sensor_type;location;lat;lon;timestamp;P1;durP1;ratioP1;P2;durP2;ratioP2
50900;SDS011;36879;51.416;6.678;2022-07-06T00:01:41;5.72;;;1.83;;
50900;SDS011;36879;51.416;6.678;2022-07-06T00:04:07;2.50;;;1.52;;
50900;SDS011;36879;51.416;6.678;2022-07-06T00:06:33;2.25;;;1.42;;
50900;SDS011;36879;51.416;6.678;2022-07-06T00:08:59;2.58;;;2.08;;
50900;SDS011;36879;51.416;6.678;2022-07-06T00:11:26;4.03;;;1.88;;
50900;SDS011;36879;51.416;6.678;2022-07-06T00:13:52;3.05;;;1.60;;
50900;SDS011;36879;51.416;6.678;2022-07-06T00:16:19;2.70;;;1.70;;
50900;SDS011;36879;51.416;6.678;2022-07-06T00:18:45;2.53;;;1.52;;
50900;SDS011;36879;51.416;6.678;2022-07-06T00:21:11;4.38;;;1.92;;
50900;SDS011;36879;51.416;6.678;2022-07-06T00:23:37;8.82;;;2.20;;
50900;SDS011;36879;51.416;6.678;2022-07-06T00:26:03;2.90;;;1.85;;
50900;SDS011;36879;51.416;6.678;2022-07-06T00:28:29;6.15;;;1.90;;
50900;SDS011;36879;51.416;6.678;2022-07-06T00:30:55;2.30;;;1.50;;
50900;SDS011;36879;51.416;6.678;2022-07-06T00:33:21;6.07;;;2.28;;
50900;SDS011;36879;51.416;6.678;2022-07-06T00:35:47;3.55;;;1.98;;
50900;SDS011;36879;51.416;6.678;2022-07-06T00:38:14;2.90;;;1.77;;
50900;SDS011;36879;51.416;6.678;2022-07-06T00:40:40;3.10;;;1.70;;
50900;SDS011;36879;51.416;6.678;2022-07-06T00:43:06;5.32;;;2.35;;
50900;SDS011;36879;51.416;6.678;2022-07-06T00:45:32;4.57;;;2.65;;
50900;SDS011;36879;51.416;6.678;2022-07-06T00:47:58;4.72;;;2.35;;
50900;SDS011;36879;51.416;6.678;2022-07-06T00:50:24;4.00;;;2.00;;
50900;SDS011;36879;51.416;6.678;2022-07-06T00:52:51;4.60;;;1.85;;
50900;SDS011;36879;51.416;6.678;2022-07-06T00:55:19;5.93;;;2.83;;
50900;SDS011;36879;51.416;6.678;2022-07-06T00:57:46;3.72;;;1.77;;
50900;SDS011;36879;51.416;6.678;2022-07-06T01:00:13;4.63;;;3.45;;
50900;SDS011;36879;51.416;6.678;2022-07-06T01:02:41;4.05;;;2.53;;
50900;SDS011;36879;51.416;6.678;2022-07-06T01:05:07;5.00;;;2.13;;
50900;SDS011;36879;51.416;6.678;2022-07-06T01:07:34;5.43;;;2.80;;
50900;SDS011;36879;51.416;6.678;2022-07-06T01:10:02;4.70;;;2.85;;
50900;SDS011;36879;51.416;6.678;2022-07-06T01:12:29;4.85;;;2.88;;
50900;SDS011;36879;51.416;6.678;2022-07-06T01:14:55;4.88;;;2.42;;
50900;SDS011;36879;51.416;6.678;2022-07-06T01:17:21;5.93;;;2.67;;
50900;SDS011;36879;51.416;6.678;2022-07-06T01:19:47;6.53;;;3.50;;
50900;SDS011;36879;51.416;6.678;2022-07-06T01:22:13;4.40;;;2.67;;
50900;SDS011;36879;51.416;6.678;2022-07-06T01:24:39;5.68;;;2.78;;
50900;SDS011;36879;51.416;6.678;2022-07-06T01:27:06;4.57;;;3.33;;
50900;SDS011;36879;51.416;6.678;2022-07-06T01:29:32;5.43;;;2.97;;
50900;SDS011;36879;51.416;6.678;2022-07-06T01:31:59;9.43;;;3.72;;
50900;SDS011;36879;51.416;6.678;2022-07-06T01:34:25;8.07;;;3.42;;
50900;SDS011;36879;51.416;6.678;2022-07-06T01:36:51;7.13;;;3.75;;
50900;SDS011;36879;51.416;6.678;2022-07-06T01:39:17;9.13;;;3.70;;
50900;SDS011;36879;51.416;6.678;2022-07-06T01:41:44;6.65;;;3.67;;
50900;SDS011;36879;51.416;6.678;2022-07-06T01:44:10;5.95;;;3.78;;
50900;SDS011;36879;51.416;6.678;2022-07-06T01:46:36;5.20;;;2.75;;
50900;SDS011;36879;51.416;6.678;2022-07-06T01:49:02;7.80;;;3.58;;
50900;SDS011;36879;51.416;6.678;2022-07-06T01:51:28;7.97;;;3.53;;
50900;SDS011;36879;51.416;6.678;2022-07-06T01:53:54;6.22;;;3.38;;
50900;SDS011;36879;51.416;6.678;2022-07-06T01:56:21;4.65;;;2.63;;
50900;SDS011;36879;51.416;6.678;2022-07-06T01:58:47;5.72;;;4.15;;
50900;SDS011;36879;51.416;6.678;2022-07-06T02:01:15;5.97;;;3.20;;
50900;SDS011;36879;51.416;6.678;2022-07-06T02:03:41;8.10;;;3.72;;
50900;SDS011;36879;51.416;6.678;2022-07-06T02:06:08;5.32;;;3.58;;
50900;SDS011;36879;51.416;6.678;2022-07-06T02:08:34;7.50;;;3.55;;
50900;SDS011;36879;51.416;6.678;2022-07-06T02:11:01;5.18;;;3.22;;
50900;SDS011;36879;51.416;6.678;2022-07-06T02:13:27;9.40;;;3.70;;
50900;SDS011;36879;51.416;6.678;2022-07-06T02:15:53;6.10;;;3.80;;
50900;SDS011;36879;51.416;6.678;2022-07-06T02:18:20;6.18;;;3.33;;
50900;SDS011;36879;51.416;6.678;2022-07-06T02:20:46;9.63;;;3.83;;
50900;SDS011;36879;51.416;6.678;2022-07-06T02:23:12;7.05;;;3.05;;
50900;SDS011;36879;51.416;6.678;2022-07-06T02:25:38;7.85;;;3.38;;
50900;SDS011;36879;51.416;6.678;2022-07-06T02:28:04;8.25;;;4.55;;
50900;SDS011;36879;51.416;6.678;2022-07-06T02:30:30;6.60;;;3.63;;
50900;SDS011;36879;51.416;6.678;2022-07-06T02:32:56;8.50;;;3.58;;
50900;SDS011;36879;51.416;6.678;2022-07-06T02:35:22;10.80;;;3.95;;
50900;SDS011;36879;51.416;6.678;2022-07-06T02:37:48;6.90;;;4.25;;
50900;SDS011;36879;51.416;6.678;2022-07-06T02:40:14;7.60;;;4.18;;
50900;SDS011;36879;51.416;6.678;2022-07-06T02:42:40;4.13;;;2.85;;
50900;SDS011;36879;51.416;6.678;2022-07-06T02:45:07;6.05;;;3.58;;
50900;SDS011;36879;51.416;6.678;2022-07-06T02:47:33;7.50;;;3.85;;
50900;SDS011;36879;51.416;6.678;2022-07-06T02:49:59;6.78;;;3.60;;
50900;SDS011;36879;51.416;6.678;2022-07-06T02:52:25;5.88;;;3.13;;
50900;SDS011;36879;51.416;6.678;2022-07-06T02:54:51;5.80;;;3.13;;
50900;SDS011;36879;51.416;6.678;2022-07-06T02:57:18;10.10;;;3.65;;
50900;SDS011;36879;51.416;6.678;2022-07-06T02:59:44;4.57;;;3.05;;
50900;SDS011;36879;51.416;6.678;2022-07-06T03:02:11;6.13;;;3.60;;
50900;SDS011;36879;51.416;6.678;2022-07-06T03:04:37;7.30;;;3.28;;
50900;SDS011;36879;51.416;6.678;2022-07-06T03:07:03;6.72;;;3.17;;
50900;SDS011;36879;51.416;6.678;2022-07-06T03:09:29;6.50;;;3.58;;
50900;SDS011;36879;51.416;6.678;2022-07-06T03:11:55;7.28;;;3.83;;
50900;SDS011;36879;51.416;6.678;2022-07-06T03:14:21;5.20;;;3.42;;
50900;SDS011;36879;51.416;6.678;2022-07-06T03:16:47;6.50;;;3.72;;
50900;SDS011;36879;51.416;6.678;2022-07-06T03:19:13;5.70;;;3.20;;
50900;SDS011;36879;51.416;6.678;2022-07-06T03:21:39;5.47;;;3.55;;
50900;SDS011;36879;51.416;6.678;2022-07-06T03:24:05;7.63;;;3.33;;
50900;SDS011;36879;51.416;6.678;2022-07-06T03:26:31;5.82;;;3.30;;
50900;SDS011;36879;51.416;6.678;2022-07-06T03:28:57;10.77;;;4.07;;
50900;SDS011;36879;51.416;6.678;2022-07-06T03:31:23;7.20;;;4.45;;
50900;SDS011;36879;51.416;6.678;2022-07-06T03:33:49;9.07;;;4.22;;
50900;SDS011;36879;51.416;6.678;2022-07-06T03:36:16;9.73;;;3.90;;
50900;SDS011;36879;51.416;6.678;2022-07-06T03:38:43;9.02;;;5.38;;
50900;SDS011;36879;51.416;6.678;2022-07-06T03:41:09;7.07;;;3.78;;
50900;SDS011;36879;51.416;6.678;2022-07-06T03:43:35;5.90;;;3.88;;
50900;SDS011;36879;51.416;6.678;2022-07-06T03:46:02;7.32;;;4.07;;
50900;SDS011;36879;51.416;6.678;2022-07-06T03:48:28;6.85;;;4.72;;
50900;SDS011;36879;51.416;6.678;2022-07-06T03:50:54;5.78;;;4.55;;
50900;SDS011;36879;51.416;6.678;2022-07-06T03:53:21;6.50;;;4.28;;
50900;SDS011;36879;51.416;6.678;2022-07-06T03:55:47;7.15;;;4.55;;
50900;SDS011;36879;51.416;6.678;2022-07-06T03:58:33;8.80;;;5.10;;
50900;SDS011;36879;51.416;6.678;2022-07-06T04:00:59;9.05;;;4.82;;
50900;SDS011;36879;51.416;6.678;2022-07-06T04:03:25;8.55;;;4.65;;
50900;SDS011;36879;51.416;6.678;2022-07-06T04:05:52;7.32;;;3.72;;
50900;SDS011;36879;51.416;6.678;2022-07-06T04:08:18;7.30;;;3.80;;
50900;SDS011;36879;51.416;6.678;2022-07-06T04:10:44;9.75;;;4.80;;
50900;SDS011;36879;51.416;6.678;2022-07-06T04:13:11;8.23;;;5.32;;
50900;SDS011;36879;51.416;6.678;2022-07-06T04:15:37;6.85;;;3.92;;
50900;SDS011;36879;51.416;6.678;2022-07-06T04:18:04;8.60;;;4.10;;
50900;SDS011;36879;51.416;6.678;2022-07-06T04:20:30;7.80;;;4.18;;
50900;SDS011;36879;51.416;6.678;2022-07-06T04:22:57;9.80;;;4.10;;
50900;SDS011;36879;51.416;6.678;2022-07-06T04:25:23;9.27;;;5.18;;
50900;SDS011;36879;51.416;6.678;2022-07-06T04:27:49;9.13;;;4.07;;
50900;SDS011;36879;51.416;6.678;2022-07-06T04:30:15;6.55;;;4.07;;
50900;SDS011;36879;51.416;6.678;2022-07-06T04:32:41;7.97;;;4.05;;
50900;SDS011;36879;51.416;6.678;2022-07-06T04:35:08;9.02;;;4.15;;
50900;SDS011;36879;51.416;6.678;2022-07-06T04:37:34;9.38;;;4.95;;
50900;SDS011;36879;51.416;6.678;2022-07-06T04:40:00;8.13;;;4.15;;
50900;SDS011;36879;51.416;6.678;2022-07-06T04:42:26;8.32;;;3.85;;
50900;SDS011;36879;51.416;6.678;2022-07-06T04:44:52;11.32;;;4.32;;
50900;SDS011;36879;51.416;6.678;2022-07-06T04:47:18;12.20;;;5.53;;
50900;SDS011;36879;51.416;6.678;2022-07-06T04:49:44;7.03;;;4.25;;
50900;SDS011;36879;51.416;6.678;2022-07-06T04:52:10;8.55;;;4.35;;
50900;SDS011;36879;51.416;6.678;2022-07-06T04:54:36;8.88;;;4.35;;
50900;SDS011;36879;51.416;6.678;2022-07-06T04:57:03;7.15;;;3.67;;
50900;SDS011;36879;51.416;6.678;2022-07-06T04:59:29;6.70;;;3.90;;
50900;SDS011;36879;51.416;6.678;2022-07-06T05:01:55;6.55;;;4.13;;
50900;SDS011;36879;51.416;6.678;2022-07-06T05:04:21;6.07;;;3.80;;
50900;SDS011;36879;51.416;6.678;2022-07-06T05:06:49;6.05;;;3.03;;
50900;SDS011;36879;51.416;6.678;2022-07-06T05:09:15;7.68;;;4.38;;
50900;SDS011;36879;51.416;6.678;2022-07-06T05:11:41;4.28;;;2.83;;
50900;SDS011;36879;51.416;6.678;2022-07-06T05:14:07;9.48;;;3.83;;
50900;SDS011;36879;51.416;6.678;2022-07-06T05:16:33;9.00;;;3.78;;
50900;SDS011;36879;51.416;6.678;2022-07-06T05:18:59;8.07;;;3.20;;
50900;SDS011;36879;51.416;6.678;2022-07-06T05:21:25;6.70;;;3.50;;
50900;SDS011;36879;51.416;6.678;2022-07-06T05:23:51;6.38;;;3.67;;
50900;SDS011;36879;51.416;6.678;2022-07-06T05:26:18;7.53;;;3.30;;
50900;SDS011;36879;51.416;6.678;2022-07-06T05:28:44;10.68;;;3.50;;
50900;SDS011;36879;51.416;6.678;2022-07-06T05:31:10;7.45;;;4.10;;
50900;SDS011;36879;51.416;6.678;2022-07-06T05:33:36;7.15;;;3.22;;
50900;SDS011;36879;51.416;6.678;2022-07-06T05:36:02;5.82;;;3.08;;
50900;SDS011;36879;51.416;6.678;2022-07-06T05:38:28;7.05;;;3.25;;
50900;SDS011;36879;51.416;6.678;2022-07-06T05:40:54;4.55;;;3.17;;
50900;SDS011;36879;51.416;6.678;2022-07-06T05:43:20;13.43;;;3.10;;
50900;SDS011;36879;51.416;6.678;2022-07-06T05:45:46;5.03;;;3.30;;
50900;SDS011;36879;51.416;6.678;2022-07-06T05:48:12;8.30;;;2.80;;
50900;SDS011;36879;51.416;6.678;2022-07-06T05:50:57;4.70;;;3.00;;
50900;SDS011;36879;51.416;6.678;2022-07-06T05:53:23;7.30;;;2.72;;
50900;SDS011;36879;51.416;6.678;2022-07-06T05:55:49;4.88;;;3.20;;
50900;SDS011;36879;51.416;6.678;2022-07-06T05:58:15;4.97;;;2.47;;
50900;SDS011;36879;51.416;6.678;2022-07-06T06:00:41;9.77;;;3.58;;
50900;SDS011;36879;51.416;6.678;2022-07-06T06:03:07;5.65;;;2.75;;
50900;SDS011;36879;51.416;6.678;2022-07-06T06:05:34;4.78;;;2.30;;
50900;SDS011;36879;51.416;6.678;2022-07-06T06:08:00;5.90;;;1.90;;
50900;SDS011;36879;51.416;6.678;2022-07-06T06:10:26;4.60;;;3.45;;
50900;SDS011;36879;51.416;6.678;2022-07-06T06:12:52;3.63;;;2.03;;
50900;SDS011;36879;51.416;6.678;2022-07-06T06:15:18;8.13;;;2.38;;
50900;SDS011;36879;51.416;6.678;2022-07-06T06:17:44;4.30;;;2.50;;
50900;SDS011;36879;51.416;6.678;2022-07-06T06:20:11;3.58;;;1.98;;
50900;SDS011;36879;51.416;6.678;2022-07-06T06:25:11;5.22;;;2.20;;
50900;SDS011;36879;51.416;6.678;2022-07-06T06:27:37;4.00;;;2.08;;
50900;SDS011;36879;51.416;6.678;2022-07-06T06:30:03;4.57;;;2.35;;
50900;SDS011;36879;51.416;6.678;2022-07-06T06:32:29;5.25;;;1.88;;
50900;SDS011;36879;51.416;6.678;2022-07-06T06:34:55;4.57;;;2.03;;
50900;SDS011;36879;51.416;6.678;2022-07-06T06:37:21;4.45;;;1.73;;
50900;SDS011;36879;51.416;6.678;2022-07-06T06:39:47;2.42;;;1.50;;
50900;SDS011;36879;51.416;6.678;2022-07-06T06:42:13;4.70;;;1.58;;
50900;SDS011;36879;51.416;6.678;2022-07-06T06:44:39;4.15;;;1.30;;
50900;SDS011;36879;51.416;6.678;2022-07-06T06:47:05;5.07;;;1.40;;
50900;SDS011;36879;51.416;6.678;2022-07-06T06:49:32;6.45;;;1.60;;
50900;SDS011;36879;51.416;6.678;2022-07-06T06:51:58;5.15;;;1.77;;
50900;SDS011;36879;51.416;6.678;2022-07-06T06:54:24;7.55;;;1.50;;
50900;SDS011;36879;51.416;6.678;2022-07-06T06:56:50;4.90;;;1.42;;
50900;SDS011;36879;51.416;6.678;2022-07-06T06:59:16;4.53;;;1.77;;
50900;SDS011;36879;51.416;6.678;2022-07-06T07:01:42;3.35;;;1.40;;
50900;SDS011;36879;51.416;6.678;2022-07-06T07:04:08;5.53;;;1.70;;
50900;SDS011;36879;51.416;6.678;2022-07-06T07:06:34;3.72;;;1.10;;
50900;SDS011;36879;51.416;6.678;2022-07-06T07:09:00;3.40;;;1.30;;
50900;SDS011;36879;51.416;6.678;2022-07-06T07:11:26;3.53;;;1.30;;
50900;SDS011;36879;51.416;6.678;2022-07-06T07:13:52;2.30;;;1.13;;
50900;SDS011;36879;51.416;6.678;2022-07-06T07:16:18;4.15;;;0.85;;
50900;SDS011;36879;51.416;6.678;2022-07-06T07:18:44;1.25;;;0.88;;
50900;SDS011;36879;51.416;6.678;2022-07-06T07:21:11;2.50;;;0.95;;
50900;SDS011;36879;51.416;6.678;2022-07-06T07:23:37;7.05;;;1.25;;
50900;SDS011;36879;51.416;6.678;2022-07-06T07:26:03;3.08;;;1.02;;
50900;SDS011;36879;51.416;6.678;2022-07-06T07:28:29;4.15;;;1.33;;
50900;SDS011;36879;51.416;6.678;2022-07-06T07:30:55;3.20;;;0.98;;
50900;SDS011;36879;51.416;6.678;2022-07-06T07:33:21;1.95;;;0.90;;
50900;SDS011;36879;51.416;6.678;2022-07-06T07:35:47;6.15;;;1.50;;
50900;SDS011;36879;51.416;6.678;2022-07-06T07:38:13;3.30;;;1.00;;
50900;SDS011;36879;51.416;6.678;2022-07-06T07:40:39;3.97;;;1.05;;
50900;SDS011;36879;51.416;6.678;2022-07-06T07:43:05;3.88;;;1.13;;
50900;SDS011;36879;51.416;6.678;2022-07-06T07:45:31;4.22;;;0.98;;
50900;SDS011;36879;51.416;6.678;2022-07-06T07:47:57;2.47;;;1.10;;
50900;SDS011;36879;51.416;6.678;2022-07-06T07:50:23;3.60;;;1.15;;
50900;SDS011;36879;51.416;6.678;2022-07-06T07:52:51;5.85;;;1.40;;
50900;SDS011;36879;51.416;6.678;2022-07-06T07:55:18;5.28;;;1.15;;
50900;SDS011;36879;51.416;6.678;2022-07-06T07:57:44;2.28;;;0.93;;
50900;SDS011;36879;51.416;6.678;2022-07-06T08:00:10;3.25;;;0.82;;
50900;SDS011;36879;51.416;6.678;2022-07-06T08:02:36;2.78;;;0.95;;
50900;SDS011;36879;51.416;6.678;2022-07-06T08:05:03;2.00;;;0.80;;
50900;SDS011;36879;51.416;6.678;2022-07-06T08:07:29;1.85;;;0.60;;
50900;SDS011;36879;51.416;6.678;2022-07-06T08:09:55;1.85;;;0.82;;
50900;SDS011;36879;51.416;6.678;2022-07-06T08:12:21;1.85;;;0.57;;
50900;SDS011;36879;51.416;6.678;2022-07-06T08:14:47;1.40;;;0.50;;
50900;SDS011;36879;51.416;6.678;2022-07-06T08:17:13;4.40;;;0.77;;
50900;SDS011;36879;51.416;6.678;2022-07-06T08:19:39;2.63;;;0.70;;
50900;SDS011;36879;51.416;6.678;2022-07-06T08:22:06;3.00;;;0.85;;
50900;SDS011;36879;51.416;6.678;2022-07-06T08:24:36;1.75;;;0.65;;
50900;SDS011;36879;51.416;6.678;2022-07-06T08:27:02;1.45;;;0.70;;
50900;SDS011;36879;51.416;6.678;2022-07-06T08:29:28;1.60;;;0.60;;
50900;SDS011;36879;51.416;6.678;2022-07-06T08:31:55;1.35;;;0.50;;
50900;SDS011;36879;51.416;6.678;2022-07-06T08:34:21;5.28;;;0.98;;
50900;SDS011;36879;51.416;6.678;2022-07-06T08:36:47;1.17;;;0.50;;
50900;SDS011;36879;51.416;6.678;2022-07-06T08:39:13;2.40;;;0.57;;
50900;SDS011;36879;51.416;6.678;2022-07-06T08:41:40;2.85;;;0.95;;
50900;SDS011;36879;51.416;6.678;2022-07-06T08:44:07;0.98;;;0.45;;
50900;SDS011;36879;51.416;6.678;2022-07-06T08:46:34;1.48;;;0.82;;
50900;SDS011;36879;51.416;6.678;2022-07-06T08:49:01;0.60;;;0.30;;
50900;SDS011;36879;51.416;6.678;2022-07-06T08:51:27;5.50;;;1.25;;
50900;SDS011;36879;51.416;6.678;2022-07-06T08:53:53;2.20;;;0.40;;
50900;SDS011;36879;51.416;6.678;2022-07-06T08:56:20;2.95;;;0.65;;
50900;SDS011;36879;51.416;6.678;2022-07-06T08:58:47;1.52;;;0.50;;
50900;SDS011;36879;51.416;6.678;2022-07-06T09:01:13;2.70;;;0.50;;
50900;SDS011;36879;51.416;6.678;2022-07-06T09:03:42;1.45;;;0.30;;
50900;SDS011;36879;51.416;6.678;2022-07-06T09:06:09;1.00;;;0.38;;
50900;SDS011;36879;51.416;6.678;2022-07-06T09:08:35;0.50;;;0.50;;
50900;SDS011;36879;51.416;6.678;2022-07-06T09:11:02;1.40;;;0.70;;
50900;SDS011;36879;51.416;6.678;2022-07-06T09:13:28;2.25;;;0.57;;
50900;SDS011;36879;51.416;6.678;2022-07-06T09:15:54;1.05;;;0.45;;
50900;SDS011;36879;51.416;6.678;2022-07-06T09:18:21;0.50;;;0.45;;
50900;SDS011;36879;51.416;6.678;2022-07-06T09:20:47;1.73;;;0.40;;
50900;SDS011;36879;51.416;6.678;2022-07-06T09:23:15;1.92;;;0.95;;
50900;SDS011;36879;51.416;6.678;2022-07-06T09:25:42;0.98;;;0.47;;
50900;SDS011;36879;51.416;6.678;2022-07-06T09:28:08;1.27;;;0.40;;
50900;SDS011;36879;51.416;6.678;2022-07-06T09:30:34;2.50;;;0.45;;
50900;SDS011;36879;51.416;6.678;2022-07-06T09:33:05;2.40;;;0.35;;
50900;SDS011;36879;51.416;6.678;2022-07-06T09:35:37;0.82;;;0.40;;
50900;SDS011;36879;51.416;6.678;2022-07-06T09:38:07;0.98;;;0.40;;
50900;SDS011;36879;51.416;6.678;2022-07-06T09:40:34;2.88;;;0.73;;
50900;SDS011;36879;51.416;6.678;2022-07-06T09:45:36;3.15;;;0.60;;
50900;SDS011;36879;51.416;6.678;2022-07-06T09:48:08;1.98;;;0.57;;
50900;SDS011;36879;51.416;6.678;2022-07-06T09:50:38;2.05;;;0.55;;
50900;SDS011;36879;51.416;6.678;2022-07-06T09:53:05;2.53;;;0.60;;
50900;SDS011;36879;51.416;6.678;2022-07-06T09:55:31;2.47;;;0.82;;
50900;SDS011;36879;51.416;6.678;2022-07-06T09:57:57;2.72;;;0.88;;
50900;SDS011;36879;51.416;6.678;2022-07-06T10:00:23;6.35;;;0.85;;
50900;SDS011;36879;51.416;6.678;2022-07-06T10:02:50;0.63;;;0.35;;
50900;SDS011;36879;51.416;6.678;2022-07-06T10:05:17;2.33;;;1.00;;
50900;SDS011;36879;51.416;6.678;2022-07-06T10:07:46;1.88;;;0.60;;
50900;SDS011;36879;51.416;6.678;2022-07-06T10:10:14;2.53;;;0.50;;
50900;SDS011;36879;51.416;6.678;2022-07-06T10:12:42;2.13;;;0.50;;
50900;SDS011;36879;51.416;6.678;2022-07-06T10:15:08;2.75;;;0.60;;
50900;SDS011;36879;51.416;6.678;2022-07-06T10:17:34;1.85;;;0.98;;
50900;SDS011;36879;51.416;6.678;2022-07-06T10:20:01;4.13;;;1.00;;
50900;SDS011;36879;51.416;6.678;2022-07-06T10:22:27;1.02;;;0.40;;
50900;SDS011;36879;51.416;6.678;2022-07-06T10:24:53;1.48;;;0.50;;
50900;SDS011;36879;51.416;6.678;2022-07-06T10:27:23;2.13;;;0.50;;
50900;SDS011;36879;51.416;6.678;2022-07-06T10:29:50;1.98;;;0.55;;
50900;SDS011;36879;51.416;6.678;2022-07-06T10:32:18;2.63;;;0.88;;
50900;SDS011;36879;51.416;6.678;2022-07-06T10:34:45;1.77;;;0.63;;
50900;SDS011;36879;51.416;6.678;2022-07-06T10:37:21;0.60;;;0.40;;
50900;SDS011;36879;51.416;6.678;2022-07-06T10:39:49;1.50;;;0.50;;
50900;SDS011;36879;51.416;6.678;2022-07-06T10:42:46;1.53;;;0.40;;
50900;SDS011;36879;51.416;6.678;2022-07-06T10:45:19;0.90;;;0.43;;
50900;SDS011;36879;51.416;6.678;2022-07-06T10:47:47;1.35;;;0.40;;
50900;SDS011;36879;51.416;6.678;2022-07-06T10:50:13;1.95;;;0.57;;
50900;SDS011;36879;51.416;6.678;2022-07-06T10:52:49;1.80;;;0.60;;
50900;SDS011;36879;51.416;6.678;2022-07-06T10:55:35;2.95;;;0.52;;
50900;SDS011;36879;51.416;6.678;2022-07-06T11:05:57;1.45;;;0.63;;
50900;SDS011;36879;51.416;6.678;2022-07-06T11:08:40;1.10;;;0.40;;
50900;SDS011;36879;51.416;6.678;2022-07-06T11:11:49;2.20;;;0.75;;
50900;SDS011;36879;51.416;6.678;2022-07-06T11:14:00;3.03;;;0.63;;
50900;SDS011;36879;51.416;6.678;2022-07-06T11:16:27;2.45;;;0.60;;
50900;SDS011;36879;51.416;6.678;2022-07-06T11:19:09;1.65;;;0.75;;
50900;SDS011;36879;51.416;6.678;2022-07-06T11:24:02;1.08;;;0.60;;
50900;SDS011;36879;51.416;6.678;2022-07-06T11:26:29;3.08;;;0.75;;
50900;SDS011;36879;51.416;6.678;2022-07-06T11:28:56;3.38;;;0.70;;
50900;SDS011;36879;51.416;6.678;2022-07-06T11:31:24;3.00;;;0.70;;
50900;SDS011;36879;51.416;6.678;2022-07-06T11:33:50;2.80;;;0.68;;
50900;SDS011;36879;51.416;6.678;2022-07-06T11:38:43;2.28;;;0.80;;
50900;SDS011;36879;51.416;6.678;2022-07-06T11:41:09;2.90;;;0.60;;
50900;SDS011;36879;51.416;6.678;2022-07-06T11:43:37;2.10;;;0.47;;
50900;SDS011;36879;51.416;6.678;2022-07-06T11:46:07;0.85;;;0.50;;
50900;SDS011;36879;51.416;6.678;2022-07-06T11:48:33;1.10;;;0.40;;
50900;SDS011;36879;51.416;6.678;2022-07-06T11:51:00;5.95;;;0.93;;
50900;SDS011;36879;51.416;6.678;2022-07-06T11:53:26;3.15;;;0.70;;
50900;SDS011;36879;51.416;6.678;2022-07-06T11:55:52;2.55;;;0.50;;
50900;SDS011;36879;51.416;6.678;2022-07-06T11:58:20;1.63;;;0.75;;
50900;SDS011;36879;51.416;6.678;2022-07-06T12:01:10;1.90;;;0.82;;
50900;SDS011;36879;51.416;6.678;2022-07-06T12:03:37;2.20;;;0.57;;
50900;SDS011;36879;51.416;6.678;2022-07-06T12:06:04;3.33;;;0.95;;
50900;SDS011;36879;51.416;6.678;2022-07-06T12:08:31;0.82;;;0.52;;
50900;SDS011;36879;51.416;6.678;2022-07-06T12:10:58;1.85;;;0.60;;
50900;SDS011;36879;51.416;6.678;2022-07-06T12:13:25;2.58;;;0.45;;
50900;SDS011;36879;51.416;6.678;2022-07-06T12:15:51;1.55;;;0.60;;
50900;SDS011;36879;51.416;6.678;2022-07-06T12:18:17;3.80;;;0.63;;
50900;SDS011;36879;51.416;6.678;2022-07-06T12:20:43;3.22;;;0.90;;
50900;SDS011;36879;51.416;6.678;2022-07-06T12:23:09;3.03;;;0.57;;
50900;SDS011;36879;51.416;6.678;2022-07-06T12:25:36;1.52;;;0.50;;
50900;SDS011;36879;51.416;6.678;2022-07-06T12:28:02;1.75;;;0.70;;
50900;SDS011;36879;51.416;6.678;2022-07-06T12:30:29;1.92;;;0.52;;
50900;SDS011;36879;51.416;6.678;2022-07-06T12:33:14;2.45;;;0.77;;
50900;SDS011;36879;51.416;6.678;2022-07-06T12:35:40;1.02;;;0.73;;
50900;SDS011;36879;51.416;6.678;2022-07-06T12:38:07;2.67;;;0.80;;
50900;SDS011;36879;51.416;6.678;2022-07-06T12:40:33;3.38;;;0.68;;
50900;SDS011;36879;51.416;6.678;2022-07-06T12:43:01;1.88;;;0.60;;
50900;SDS011;36879;51.416;6.678;2022-07-06T12:45:28;6.40;;;1.02;;
50900;SDS011;36879;51.416;6.678;2022-07-06T12:47:58;1.13;;;0.50;;
50900;SDS011;36879;51.416;6.678;2022-07-06T12:50:38;2.20;;;1.00;;
50900;SDS011;36879;51.416;6.678;2022-07-06T12:53:06;2.38;;;0.60;;
50900;SDS011;36879;51.416;6.678;2022-07-06T12:55:49;2.45;;;0.60;;
50900;SDS011;36879;51.416;6.678;2022-07-06T12:58:18;2.83;;;0.50;;
50900;SDS011;36879;51.416;6.678;2022-07-06T13:00:44;1.08;;;0.50;;
50900;SDS011;36879;51.416;6.678;2022-07-06T13:03:11;2.78;;;0.73;;
50900;SDS011;36879;51.416;6.678;2022-07-06T13:05:37;6.18;;;0.70;;
50900;SDS011;36879;51.416;6.678;2022-07-06T13:08:03;1.40;;;0.60;;
50900;SDS011;36879;51.416;6.678;2022-07-06T13:10:29;3.75;;;0.80;;
50900;SDS011;36879;51.416;6.678;2022-07-06T13:12:56;3.05;;;0.70;;
50900;SDS011;36879;51.416;6.678;2022-07-06T13:15:22;2.78;;;0.57;;
50900;SDS011;36879;51.416;6.678;2022-07-06T13:17:48;2.75;;;0.57;;
50900;SDS011;36879;51.416;6.678;2022-07-06T13:20:14;2.20;;;0.70;;
50900;SDS011;36879;51.416;6.678;2022-07-06T13:22:42;2.67;;;1.02;;
50900;SDS011;36879;51.416;6.678;2022-07-06T13:25:08;1.23;;;0.63;;
50900;SDS011;36879;51.416;6.678;2022-07-06T13:27:34;2.05;;;0.90;;
50900;SDS011;36879;51.416;6.678;2022-07-06T13:30:01;4.03;;;0.98;;
50900;SDS011;36879;51.416;6.678;2022-07-06T13:32:27;1.90;;;0.50;;
50900;SDS011;36879;51.416;6.678;2022-07-06T13:34:53;5.07;;;0.77;;
50900;SDS011;36879;51.416;6.678;2022-07-06T13:37:19;1.67;;;0.60;;
50900;SDS011;36879;51.416;6.678;2022-07-06T13:39:48;2.72;;;0.52;;
50900;SDS011;36879;51.416;6.678;2022-07-06T13:42:14;0.85;;;0.47;;
50900;SDS011;36879;51.416;6.678;2022-07-06T13:44:40;3.90;;;0.50;;
50900;SDS011;36879;51.416;6.678;2022-07-06T13:47:06;2.67;;;0.50;;
50900;SDS011;36879;51.416;6.678;2022-07-06T13:49:32;3.55;;;0.80;;
50900;SDS011;36879;51.416;6.678;2022-07-06T13:51:59;1.42;;;0.40;;
50900;SDS011;36879;51.416;6.678;2022-07-06T13:54:28;2.60;;;0.80;;
50900;SDS011;36879;51.416;6.678;2022-07-06T13:56:54;1.60;;;0.40;;
50900;SDS011;36879;51.416;6.678;2022-07-06T13:59:20;2.20;;;0.50;;
50900;SDS011;36879;51.416;6.678;2022-07-06T14:01:46;1.55;;;1.13;;
50900;SDS011;36879;51.416;6.678;2022-07-06T14:04:12;1.80;;;0.70;;
50900;SDS011;36879;51.416;6.678;2022-07-06T14:06:38;2.78;;;0.60;;
50900;SDS011;36879;51.416;6.678;2022-07-06T14:09:05;2.95;;;0.50;;
50900;SDS011;36879;51.416;6.678;2022-07-06T14:11:31;3.13;;;0.63;;
50900;SDS011;36879;51.416;6.678;2022-07-06T14:13:57;0.85;;;0.43;;
50900;SDS011;36879;51.416;6.678;2022-07-06T14:16:23;2.67;;;0.55;;
50900;SDS011;36879;51.416;6.678;2022-07-06T14:18:49;2.15;;;0.93;;
50900;SDS011;36879;51.416;6.678;2022-07-06T14:21:16;1.83;;;0.77;;
50900;SDS011;36879;51.416;6.678;2022-07-06T14:23:42;1.77;;;0.60;;
50900;SDS011;36879;51.416;6.678;2022-07-06T14:26:08;2.35;;;0.50;;
50900;SDS011;36879;51.416;6.678;2022-07-06T14:28:35;1.00;;;0.70;;
50900;SDS011;36879;51.416;6.678;2022-07-06T14:31:01;2.80;;;0.63;;
50900;SDS011;36879;51.416;6.678;2022-07-06T14:33:27;2.22;;;0.70;;
50900;SDS011;36879;51.416;6.678;2022-07-06T14:35:53;1.52;;;0.40;;
50900;SDS011;36879;51.416;6.678;2022-07-06T14:38:20;1.88;;;0.40;;
50900;SDS011;36879;51.416;6.678;2022-07-06T14:40:46;3.25;;;0.68;;
50900;SDS011;36879;51.416;6.678;2022-07-06T14:43:13;2.25;;;0.60;;
50900;SDS011;36879;51.416;6.678;2022-07-06T14:45:40;1.30;;;0.60;;
50900;SDS011;36879;51.416;6.678;2022-07-06T14:48:06;0.98;;;0.50;;
50900;SDS011;36879;51.416;6.678;2022-07-06T14:50:32;2.08;;;0.50;;
50900;SDS011;36879;51.416;6.678;2022-07-06T14:52:59;0.80;;;0.40;;
50900;SDS011;36879;51.416;6.678;2022-07-06T14:55:25;3.20;;;0.77;;
50900;SDS011;36879;51.416;6.678;2022-07-06T14:57:52;1.80;;;0.52;;
50900;SDS011;36879;51.416;6.678;2022-07-06T15:00:20;0.70;;;0.32;;
50900;SDS011;36879;51.416;6.678;2022-07-06T15:02:46;2.70;;;0.47;;
50900;SDS011;36879;51.416;6.678;2022-07-06T15:05:12;2.58;;;0.93;;